createdAt,value
2022-08-25T00:01:23.789Z,20.76
2022-08-25T00:03:55.161Z,20.70
2022-08-25T00:06:23.828Z,20.67
2022-08-25T00:08:51.164Z,20.55
2022-08-25T00:11:23.915Z,20.63
2022-08-25T00:13:55.916Z,20.59
2022-08-25T00:16:23.303Z,20.58
2022-08-25T00:18:56.738Z,20.57
2022-08-25T00:21:23.644Z,20.52
2022-08-25T00:23:50.707Z,20.48
2022-08-25T00:26:17.977Z,20.45
2022-08-25T00:28:45.095Z,20.40
2022-08-25T00:31:14.645Z,20.41
2022-08-25T00:33:43.095Z,20.40
2022-08-25T00:36:12.253Z,20.40
2022-08-25T00:38:40.592Z,20.38
2022-08-25T00:41:08.289Z,20.33
2022-08-25T00:43:46.601Z,20.32
2022-08-25T00:46:18.649Z,20.28
2022-08-25T00:48:49.299Z,20.27
2022-08-25T00:51:36.881Z,20.22
2022-08-25T00:54:05.486Z,20.18
2022-08-25T00:56:32.268Z,20.13
2022-08-25T00:58:59.903Z,20.09
2022-08-25T01:01:27.159Z,20.03
2022-08-25T01:03:54.111Z,20.02
2022-08-25T01:06:21.386Z,19.99
2022-08-25T01:08:48.176Z,19.96
2022-08-25T01:11:14.814Z,19.95
2022-08-25T01:13:45.433Z,19.96
2022-08-25T01:16:14.898Z,19.95
2022-08-25T01:18:44.552Z,19.92
2022-08-25T01:21:11.322Z,19.93
2022-08-25T01:23:38.666Z,19.92
2022-08-25T01:26:11.256Z,19.87
2022-08-25T01:28:38.550Z,19.87
2022-08-25T01:31:05.339Z,19.86
2022-08-25T01:33:51.010Z,19.84
2022-08-25T01:36:22.376Z,19.86
2022-08-25T01:38:49.434Z,19.86
2022-08-25T01:41:48.725Z,19.88
2022-08-25T01:44:18.511Z,19.86
2022-08-25T01:46:45.225Z,19.85
2022-08-25T01:49:12.114Z,19.84
2022-08-25T01:51:44.756Z,19.81
2022-08-25T01:54:11.347Z,19.81
2022-08-25T01:56:38.755Z,19.78
2022-08-25T01:59:05.467Z,19.78
2022-08-25T02:01:32.522Z,19.77
2022-08-25T02:03:59.619Z,19.71
2022-08-25T02:06:33.199Z,19.74
2022-08-25T02:09:07.760Z,19.68
2022-08-25T02:11:37.048Z,19.70
2022-08-25T02:14:04.319Z,19.65
2022-08-25T02:16:33.283Z,19.62
2022-08-25T02:19:00.936Z,19.61
2022-08-25T02:21:28.226Z,19.60
2022-08-25T02:23:55.182Z,19.61
2022-08-25T02:26:22.649Z,19.62
2022-08-25T02:28:51.116Z,19.60
2022-08-25T02:31:20.515Z,19.58
2022-08-25T02:33:47.113Z,19.56
2022-08-25T02:36:13.791Z,19.53
2022-08-25T02:38:40.723Z,19.50
2022-08-25T02:41:17.961Z,19.47
2022-08-25T02:43:45.318Z,19.43
2022-08-25T02:46:12.331Z,19.43
2022-08-25T02:48:39.912Z,19.44
2022-08-25T02:51:08.775Z,19.43
2022-08-25T02:53:38.252Z,19.42
2022-08-25T02:56:05.285Z,19.44
2022-08-25T02:58:31.931Z,19.45
2022-08-25T03:00:58.577Z,19.48
2022-08-25T03:03:25.306Z,19.48
2022-08-25T03:05:52.079Z,19.45
2022-08-25T03:08:18.747Z,19.41
2022-08-25T03:10:45.366Z,19.40
2022-08-25T03:13:14.148Z,19.38
2022-08-25T03:15:42.501Z,19.35
2022-08-25T03:18:09.341Z,19.31
2022-08-25T03:20:36.042Z,19.31
2022-08-25T03:23:04.141Z,19.29
2022-08-25T03:25:49.094Z,19.33
2022-08-25T03:28:15.917Z,19.32
2022-08-25T03:30:42.957Z,19.29
2022-08-25T03:33:10.003Z,19.25
2022-08-25T03:35:36.804Z,19.22
2022-08-25T03:38:04.004Z,19.18
2022-08-25T03:40:31.181Z,19.17
2022-08-25T03:42:58.038Z,19.14
2022-08-25T03:45:25.528Z,19.09
2022-08-25T03:47:53.495Z,19.11
2022-08-25T03:50:22.446Z,19.09
2022-08-25T03:52:56.987Z,19.08
2022-08-25T03:55:25.664Z,19.06
2022-08-25T03:57:54.570Z,19.04
2022-08-25T04:00:23.140Z,19.05
2022-08-25T04:02:49.922Z,19.06
2022-08-25T04:05:16.706Z,19.08
2022-08-25T04:07:43.611Z,19.10
2022-08-25T04:10:10.930Z,19.07
2022-08-25T04:12:38.502Z,19.06
2022-08-25T04:15:07.470Z,19.04
2022-08-25T04:17:38.849Z,19.02
2022-08-25T04:20:08.365Z,19.02
2022-08-25T04:22:36.840Z,19.02
2022-08-25T04:25:05.947Z,19.01
2022-08-25T04:27:32.550Z,19.02
2022-08-25T04:29:59.162Z,19.05
2022-08-25T04:32:25.790Z,19.05
2022-08-25T04:34:52.556Z,19.03
2022-08-25T04:37:19.182Z,18.98
2022-08-25T04:39:45.932Z,19.02
2022-08-25T04:42:12.583Z,19.04
2022-08-25T04:44:39.206Z,19.04
2022-08-25T04:47:06.032Z,19.04
2022-08-25T04:49:32.847Z,19.04
2022-08-25T04:51:59.507Z,19.06
2022-08-25T04:54:28.071Z,19.07
2022-08-25T04:56:58.101Z,19.06
2022-08-25T04:59:27.330Z,19.06
2022-08-25T05:01:58.687Z,19.06
2022-08-25T05:04:28.336Z,19.06
2022-08-25T05:06:56.725Z,19.07
2022-08-25T05:09:24.118Z,19.06
2022-08-25T05:11:52.427Z,19.03
2022-08-25T05:14:25.688Z,19.08
2022-08-25T05:16:54.772Z,19.11
2022-08-25T05:19:23.586Z,19.12
2022-08-25T05:21:50.382Z,19.08
2022-08-25T05:24:16.986Z,19.11
2022-08-25T05:26:43.861Z,19.16
2022-08-25T05:29:11.767Z,19.23
2022-08-25T05:31:43.124Z,19.25
2022-08-25T05:34:12.114Z,19.30
2022-08-25T05:36:43.174Z,19.38
2022-08-25T05:39:10.573Z,19.47
2022-08-25T05:41:37.377Z,19.43
2022-08-25T05:44:04.353Z,19.48
2022-08-25T05:46:31.792Z,19.54
2022-08-25T05:48:59.025Z,19.57
2022-08-25T05:51:26.315Z,19.58
2022-08-25T05:53:53.122Z,19.55
2022-08-25T05:56:20.022Z,19.50
2022-08-25T05:58:46.903Z,19.51
2022-08-25T06:01:50.024Z,19.50
2022-08-25T06:04:18.024Z,19.52
2022-08-25T06:06:44.694Z,19.54
2022-08-25T06:09:11.605Z,19.56
2022-08-25T06:11:40.062Z,19.54
2022-08-25T06:14:08.771Z,19.54
2022-08-25T06:16:35.485Z,19.54
2022-08-25T06:19:02.191Z,19.53
2022-08-25T06:21:29.197Z,19.62
2022-08-25T06:23:55.850Z,19.70
2022-08-25T06:26:23.436Z,19.69
2022-08-25T06:28:51.761Z,19.72
2022-08-25T06:31:19.696Z,19.81
2022-08-25T06:33:46.790Z,19.86
2022-08-25T06:36:13.741Z,19.89
2022-08-25T06:38:40.321Z,20.00
2022-08-25T06:41:10.575Z,20.05
2022-08-25T06:43:45.033Z,20.09
2022-08-25T06:46:19.260Z,20.15
2022-08-25T06:48:46.047Z,20.21
2022-08-25T06:51:15.171Z,20.26
2022-08-25T06:53:43.432Z,20.28
2022-08-25T06:56:11.162Z,20.29
2022-08-25T06:58:38.855Z,20.30
2022-08-25T07:01:19.792Z,20.37
2022-08-25T07:03:47.524Z,20.36
2022-08-25T07:06:16.585Z,20.41
2022-08-25T07:08:46.442Z,20.44
2022-08-25T07:11:17.379Z,20.53
2022-08-25T07:13:44.753Z,20.60
2022-08-25T07:16:11.674Z,20.60
2022-08-25T07:18:38.406Z,20.67
2022-08-25T07:21:05.423Z,20.80
2022-08-25T07:23:36.116Z,20.82
2022-08-25T07:26:36.193Z,20.89
2022-08-25T07:29:04.217Z,20.93
2022-08-25T07:31:32.428Z,20.97
2022-08-25T07:34:17.734Z,21.04
2022-08-25T07:36:44.478Z,21.10
2022-08-25T07:39:11.519Z,21.15
2022-08-25T07:41:40.817Z,21.22
2022-08-25T07:44:08.393Z,21.32
2022-08-25T07:46:35.085Z,21.41
2022-08-25T07:49:02.051Z,21.48
2022-08-25T07:51:28.866Z,21.56
2022-08-25T07:53:55.605Z,21.66
2022-08-25T07:56:22.274Z,21.70
2022-08-25T07:58:48.874Z,21.73
2022-08-25T08:01:21.288Z,21.88
2022-08-25T08:03:50.577Z,22.02
2022-08-25T08:06:20.847Z,22.06
2022-08-25T08:08:49.387Z,22.16
2022-08-25T08:11:28.707Z,22.32
2022-08-25T08:13:57.625Z,22.48
2022-08-25T08:16:26.864Z,22.61
2022-08-25T08:18:53.928Z,22.68
2022-08-25T08:21:24.459Z,22.80
2022-08-25T08:23:56.678Z,22.84
2022-08-25T08:26:36.416Z,22.74
2022-08-25T08:29:08.839Z,22.77
2022-08-25T08:31:36.596Z,22.96
2022-08-25T08:34:03.726Z,23.04
2022-08-25T08:36:30.320Z,23.12
2022-08-25T08:38:56.948Z,23.19
2022-08-25T08:42:16.950Z,23.25
2022-08-25T08:44:47.070Z,23.23
2022-08-25T08:50:06.518Z,23.33
2022-08-25T08:52:41.251Z,23.45
2022-08-25T08:55:26.604Z,23.59
2022-08-25T08:57:56.813Z,23.69
2022-08-25T09:00:26.088Z,23.74
2022-08-25T09:02:54.694Z,23.55
2022-08-25T09:05:26.088Z,23.52
2022-08-25T09:08:03.191Z,23.65
2022-08-25T09:10:40.394Z,23.74
2022-08-25T09:13:38.691Z,23.84
2022-08-25T09:16:55.735Z,23.96
2022-08-25T09:20:02.130Z,24.04
2022-08-25T09:22:55.844Z,24.07
2022-08-25T09:25:48.589Z,24.10
2022-08-25T09:28:21.918Z,24.26
2022-08-25T09:31:16.923Z,24.44
2022-08-25T09:33:43.749Z,24.67
2022-08-25T09:36:10.916Z,24.90
2022-08-25T09:38:38.549Z,25.03
2022-08-25T09:41:05.728Z,25.01
2022-08-25T09:43:44.806Z,25.08
2022-08-25T09:46:29.021Z,25.11
2022-08-25T09:48:57.762Z,25.12
2022-08-25T09:51:38.323Z,25.13
2022-08-25T09:54:12.622Z,25.21
2022-08-25T09:57:01.998Z,25.29
2022-08-25T09:59:35.190Z,25.42
2022-08-25T10:02:05.922Z,25.47
2022-08-25T10:04:40.084Z,25.58
2022-08-25T10:07:28.428Z,25.75
2022-08-25T10:09:58.806Z,25.85
2022-08-25T10:12:51.491Z,25.86
2022-08-25T10:15:29.641Z,25.88
2022-08-25T10:18:19.941Z,25.98
2022-08-25T10:21:07.641Z,26.03
2022-08-25T10:23:37.321Z,26.18
2022-08-25T10:26:11.764Z,26.28
2022-08-25T10:28:54.553Z,26.45
2022-08-25T10:31:37.354Z,26.64
2022-08-25T10:34:37.179Z,26.87
2022-08-25T10:37:16.938Z,27.03
2022-08-25T10:39:55.409Z,27.18
2022-08-25T10:42:33.836Z,27.29
2022-08-25T10:45:28.443Z,27.43
2022-08-25T10:48:06.979Z,27.58
2022-08-25T10:50:40.054Z,27.59
2022-08-25T10:53:42.411Z,27.60
2022-08-25T10:56:26.363Z,27.62
2022-08-25T10:59:12.475Z,27.77
2022-08-25T11:01:53.856Z,27.85
2022-08-25T11:04:30.954Z,27.74
2022-08-25T11:07:10.554Z,27.87
2022-08-25T11:09:44.363Z,27.97
2022-08-25T11:12:38.652Z,28.15
2022-08-25T11:15:20.407Z,28.35
2022-08-25T11:17:53.748Z,28.45
2022-08-25T11:20:27.024Z,28.57
2022-08-25T11:23:08.840Z,28.66
2022-08-25T11:25:46.098Z,28.71
2022-08-25T11:28:14.712Z,28.83
2022-08-25T11:30:41.997Z,28.85
2022-08-25T11:33:13.975Z,29.03
2022-08-25T11:35:47.682Z,29.18
2022-08-25T11:38:17.775Z,29.33
2022-08-25T11:40:59.530Z,29.43
2022-08-25T11:43:56.334Z,29.34
2022-08-25T11:46:45.558Z,29.44
2022-08-25T11:49:44.339Z,29.70
2022-08-25T11:52:34.842Z,29.24
2022-08-25T11:55:12.086Z,29.36
2022-08-25T11:57:39.553Z,29.28
2022-08-25T12:00:08.587Z,29.03
2022-08-25T12:02:48.699Z,28.91
2022-08-25T12:05:15.312Z,29.15
2022-08-25T12:07:48.258Z,29.35
2022-08-25T12:10:19.586Z,29.08
2022-08-25T12:12:46.538Z,28.65
2022-08-25T12:15:53.639Z,28.80
2022-08-25T12:18:23.074Z,28.94
2022-08-25T12:20:58.521Z,29.20
2022-08-25T12:23:27.862Z,29.49
2022-08-25T12:25:57.015Z,29.68
2022-08-25T12:28:30.339Z,29.89
2022-08-25T12:31:12.065Z,29.92
2022-08-25T12:33:53.968Z,30.03
2022-08-25T12:36:31.512Z,29.76
2022-08-25T12:39:24.328Z,30.03
2022-08-25T12:41:58.270Z,30.22
2022-08-25T12:44:38.231Z,30.19
2022-08-25T12:47:28.063Z,29.85
2022-08-25T12:50:35.140Z,29.61
2022-08-25T12:53:12.263Z,30.08
2022-08-25T12:55:46.474Z,30.43
2022-08-25T12:58:13.096Z,30.59
2022-08-25T13:01:00.884Z,30.68
2022-08-25T13:04:06.219Z,30.50
2022-08-25T13:06:58.320Z,29.83
2022-08-25T13:09:50.703Z,29.77
2022-08-25T13:12:35.527Z,30.24
2022-08-25T13:15:02.805Z,30.60
2022-08-25T13:17:35.644Z,30.52
2022-08-25T13:20:30.536Z,30.05
2022-08-25T13:25:51.759Z,30.59
2022-08-25T13:28:30.084Z,30.83
2022-08-25T13:31:00.233Z,31.08
2022-08-25T13:33:27.815Z,31.37
2022-08-25T13:36:16.313Z,31.17
2022-08-25T13:38:46.792Z,30.58
2022-08-25T13:41:29.372Z,30.75
2022-08-25T13:44:01.083Z,30.98
2022-08-25T13:46:30.070Z,31.31
2022-08-25T13:49:06.599Z,31.48
2022-08-25T13:51:36.488Z,31.67
2022-08-25T13:54:07.190Z,31.84
2022-08-25T13:56:41.902Z,32.13
2022-08-25T13:59:40.779Z,32.29
2022-08-25T14:02:15.260Z,32.41
2022-08-25T14:04:50.667Z,32.51
2022-08-25T14:07:20.161Z,32.69
2022-08-25T14:09:57.489Z,32.86
2022-08-25T14:15:07.331Z,33.05
2022-08-25T14:17:39.197Z,32.55
2022-08-25T14:20:17.252Z,32.66
2022-08-25T14:22:44.332Z,32.78
2022-08-25T14:25:11.344Z,32.67
2022-08-25T14:28:05.721Z,32.74
2022-08-25T14:30:30.125Z,32.90
2022-08-25T14:32:57.026Z,32.89
2022-08-25T14:35:23.672Z,32.30
2022-08-25T14:37:50.543Z,31.92
2022-08-25T14:40:20.033Z,32.13
2022-08-25T14:42:47.602Z,32.18
2022-08-25T14:45:18.938Z,32.30
2022-08-25T14:47:49.722Z,32.44
2022-08-25T14:50:24.668Z,32.49
2022-08-25T14:52:52.164Z,32.24
2022-08-25T14:55:31.678Z,31.89
2022-08-25T14:57:59.811Z,32.03
2022-08-25T15:00:26.721Z,32.08
2022-08-25T15:02:54.890Z,32.17
2022-08-25T15:05:25.698Z,32.25
2022-08-25T15:08:12.461Z,31.88
2022-08-25T15:10:40.363Z,31.23
2022-08-25T15:13:07.325Z,30.72
2022-08-25T15:15:38.804Z,30.34
2022-08-25T15:18:19.787Z,29.94
2022-08-25T15:20:47.047Z,29.68
2022-08-25T15:23:18.628Z,29.79
2022-08-25T15:25:52.863Z,30.28
2022-08-25T15:28:21.907Z,30.68
2022-08-25T15:30:50.059Z,30.93
2022-08-25T15:33:17.769Z,31.03
2022-08-25T15:35:45.128Z,31.16
2022-08-25T15:38:12.483Z,30.93
2022-08-25T15:40:39.864Z,30.50
2022-08-25T15:43:07.093Z,30.14
2022-08-25T15:45:36.234Z,30.28
2022-08-25T15:48:04.383Z,30.80
2022-08-25T15:50:33.718Z,31.22
2022-08-25T15:53:00.583Z,31.40
2022-08-25T15:55:27.509Z,31.53
2022-08-25T15:57:55.491Z,31.64
2022-08-25T16:00:22.838Z,31.58
2022-08-25T16:02:49.975Z,31.60
2022-08-25T16:05:16.785Z,31.73
2022-08-25T16:07:45.948Z,31.79
2022-08-25T16:10:13.686Z,31.86
2022-08-25T16:12:42.716Z,31.82
2022-08-25T16:15:12.098Z,31.79
2022-08-25T16:17:40.736Z,31.70
2022-08-25T16:20:13.827Z,31.65
2022-08-25T16:22:41.209Z,31.66
2022-08-25T16:25:08.485Z,31.58
2022-08-25T16:27:38.578Z,31.68
2022-08-25T16:30:06.889Z,31.74
2022-08-25T16:32:33.545Z,31.81
2022-08-25T16:35:00.719Z,31.82
2022-08-25T16:37:27.664Z,31.87
2022-08-25T16:39:55.417Z,31.81
2022-08-25T16:42:22.219Z,31.70
2022-08-25T16:44:48.841Z,31.53
2022-08-25T16:47:25.270Z,31.42
2022-08-25T16:49:54.326Z,31.28
2022-08-25T16:52:40.598Z,31.13
2022-08-25T16:55:14.359Z,31.00
2022-08-25T16:57:44.006Z,30.93
2022-08-25T17:00:13.840Z,30.92
2022-08-25T17:02:42.152Z,30.88
2022-08-25T17:05:11.396Z,30.76
2022-08-25T17:07:38.680Z,30.73
2022-08-25T17:10:06.694Z,30.56
2022-08-25T17:12:39.600Z,30.38
2022-08-25T17:15:07.513Z,30.31
2022-08-25T17:17:36.019Z,30.22
2022-08-25T17:20:04.820Z,30.07
2022-08-25T17:22:31.715Z,29.96
2022-08-25T17:25:00.704Z,29.93
2022-08-25T17:27:27.994Z,29.87
2022-08-25T17:29:55.824Z,29.75
2022-08-25T17:32:28.877Z,29.54
2022-08-25T17:34:58.095Z,29.31
2022-08-25T17:37:24.864Z,29.06
2022-08-25T17:39:57.429Z,28.73
2022-08-25T17:42:30.537Z,28.46
2022-08-25T17:44:57.989Z,28.27
2022-08-25T17:47:24.634Z,28.11
2022-08-25T17:49:51.216Z,27.96
2022-08-25T17:52:17.855Z,27.84
2022-08-25T17:54:48.137Z,27.74
2022-08-25T17:57:16.136Z,27.63
2022-08-25T17:59:42.938Z,27.54
2022-08-25T18:02:09.706Z,27.41
2022-08-25T18:04:39.063Z,27.28
2022-08-25T18:07:06.573Z,27.14
2022-08-25T18:09:33.233Z,27.00
2022-08-25T18:11:59.940Z,26.82
2022-08-25T18:14:26.782Z,26.64
2022-08-25T18:16:53.917Z,26.45
2022-08-25T18:19:21.205Z,26.34
2022-08-25T18:21:48.120Z,26.21
2022-08-25T18:24:14.687Z,26.12
2022-08-25T18:26:41.560Z,26.03
2022-08-25T18:29:12.075Z,25.94
2022-08-25T18:31:41.645Z,25.86
2022-08-25T18:34:11.023Z,25.78
2022-08-25T18:36:38.795Z,25.71
2022-08-25T18:39:24.729Z,25.62
2022-08-25T18:41:51.765Z,25.54
2022-08-25T18:44:18.413Z,25.45
2022-08-25T18:46:45.376Z,25.40
2022-08-25T18:49:12.767Z,25.34
2022-08-25T18:51:44.395Z,25.30
2022-08-25T18:54:22.410Z,25.25
2022-08-25T18:56:50.287Z,25.21
2022-08-25T18:59:16.892Z,25.19
2022-08-25T19:01:44.586Z,25.15
2022-08-25T19:04:13.514Z,25.09
2022-08-25T19:06:40.105Z,25.03
2022-08-25T19:09:10.835Z,24.98
2022-08-25T19:11:38.431Z,24.93
2022-08-25T19:14:08.081Z,24.92
2022-08-25T19:16:41.120Z,24.88
2022-08-25T19:19:11.561Z,24.86
2022-08-25T19:21:38.825Z,24.81
2022-08-25T19:24:07.020Z,24.76
2022-08-25T19:26:36.258Z,24.74
2022-08-25T19:29:08.964Z,24.71
2022-08-25T19:31:37.115Z,24.71
2022-08-25T19:34:09.003Z,24.69
2022-08-25T19:36:35.802Z,24.63
2022-08-25T19:39:04.747Z,24.62
2022-08-25T19:41:31.518Z,24.61
2022-08-25T19:43:59.451Z,24.59
2022-08-25T19:46:35.176Z,24.45
2022-08-25T19:49:09.149Z,24.52
2022-08-25T19:51:38.238Z,24.45
2022-08-25T19:54:05.936Z,24.45
2022-08-25T19:56:35.123Z,24.44
2022-08-25T19:59:03.814Z,24.41
2022-08-25T20:01:30.512Z,24.37
2022-08-25T20:03:57.146Z,24.34
2022-08-25T20:06:24.406Z,24.32
2022-08-25T20:08:58.907Z,24.28
2022-08-25T20:11:28.888Z,24.23
2022-08-25T20:13:58.184Z,24.15
2022-08-25T20:16:28.135Z,24.08
2022-08-25T20:18:55.013Z,24.01
2022-08-25T20:21:21.608Z,23.93
2022-08-25T20:24:07.287Z,23.85
2022-08-25T20:26:33.879Z,23.77
2022-08-25T20:29:00.544Z,23.70
2022-08-25T20:31:27.346Z,23.64
2022-08-25T20:33:58.507Z,23.55
2022-08-25T20:36:26.923Z,23.46
2022-08-25T20:38:53.502Z,23.36
2022-08-25T20:41:20.110Z,23.27
2022-08-25T20:43:46.744Z,23.15
2022-08-25T20:46:13.515Z,23.06
2022-08-25T20:48:40.185Z,22.98
2022-08-25T20:51:08.541Z,22.89
2022-08-25T20:53:36.627Z,22.77
2022-08-25T20:56:08.882Z,22.68
2022-08-25T20:58:37.598Z,22.59
2022-08-25T21:01:37.552Z,22.54
2022-08-25T21:04:06.076Z,22.48
2022-08-25T21:06:36.119Z,22.45
2022-08-25T21:09:07.595Z,22.42
2022-08-25T21:11:41.456Z,22.38
2022-08-25T21:14:08.080Z,22.33
2022-08-25T21:16:38.816Z,22.34
2022-08-25T21:19:06.037Z,22.31
2022-08-25T21:21:38.185Z,22.27
2022-08-25T21:24:09.744Z,22.27
2022-08-25T21:26:37.614Z,22.24
2022-08-25T21:29:15.571Z,22.21
2022-08-25T21:31:42.594Z,22.23
2022-08-25T21:34:11.681Z,22.22
2022-08-25T21:36:39.531Z,22.19
2022-08-25T21:39:06.737Z,22.13
2022-08-25T21:41:35.276Z,22.07
2022-08-25T21:44:03.869Z,21.99
2022-08-25T21:46:32.960Z,21.98
2022-08-25T21:49:00.874Z,21.97
2022-08-25T21:51:44.559Z,21.94
2022-08-25T21:54:15.221Z,21.90
2022-08-25T21:57:02.642Z,21.78
2022-08-25T21:59:32.575Z,21.74
2022-08-25T22:02:02.059Z,21.70
2022-08-25T22:04:29.687Z,21.64
2022-08-25T22:06:58.081Z,21.57
2022-08-25T22:09:25.286Z,21.53
2022-08-25T22:11:54.736Z,21.51
2022-08-25T22:14:23.476Z,21.47
2022-08-25T22:16:52.013Z,21.42
2022-08-25T22:19:18.820Z,21.39
2022-08-25T22:21:45.468Z,21.37
2022-08-25T22:24:12.300Z,21.37
2022-08-25T22:26:39.828Z,21.42
2022-08-25T22:29:06.615Z,21.43
2022-08-25T22:31:35.662Z,21.46
2022-08-25T22:34:03.404Z,21.45
2022-08-25T22:36:34.222Z,21.41
2022-08-25T22:39:01.665Z,21.34
2022-08-25T22:41:29.934Z,21.32
2022-08-25T22:43:56.802Z,21.29
2022-08-25T22:46:27.942Z,21.32
2022-08-25T22:48:55.627Z,21.36
2022-08-25T22:51:25.539Z,21.35
2022-08-25T22:53:52.217Z,21.35
2022-08-25T22:56:29.738Z,21.30
2022-08-25T22:59:05.766Z,21.26
2022-08-25T23:01:33.491Z,21.21
2022-08-25T23:04:04.191Z,21.19
2022-08-25T23:06:34.470Z,21.11
2022-08-25T23:09:01.588Z,21.09
2022-08-25T23:11:28.871Z,21.11
2022-08-25T23:13:57.542Z,21.13
2022-08-25T23:16:24.457Z,21.13
2022-08-25T23:18:51.184Z,21.20
2022-08-25T23:21:38.162Z,21.20
2022-08-25T23:24:10.747Z,21.24
2022-08-25T23:26:42.446Z,21.28
2022-08-25T23:29:18.073Z,21.29
2022-08-25T23:31:47.536Z,21.33
2022-08-25T23:34:16.601Z,21.34
2022-08-25T23:36:44.735Z,21.37
2022-08-25T23:39:11.466Z,21.40
2022-08-25T23:41:38.821Z,21.44
2022-08-25T23:44:06.750Z,21.44
2022-08-25T23:46:36.118Z,21.42
2022-08-25T23:49:04.917Z,21.39
2022-08-25T23:51:34.332Z,21.31
2022-08-25T23:54:05.793Z,21.16
2022-08-25T23:56:34.412Z,21.03
2022-08-25T23:59:05.126Z,20.91
